This is the latest recevied weather packets stored in our database for station/object OK2ZI. If no packets are shown the sender has not sent any weather packets the latest 10 day(s).
| Time | Temp. | Humidity | Pressure | Rain* | Wind** | Luminosity | Snow |
|---|---|---|---|---|---|---|---|
| 1778165887 | 17.78° C | 49% | 1009 hPa | 0 mm | - | - | - |
| 1778165647 | 17.22° C | 50% | 1009 hPa | 0 mm | - | - | - |
| 1778165410 | 17.22° C | 53% | 1009 hPa | 0 mm | - | - | - |
| 1778164687 | 19.44° C | 46% | 1009 hPa | 0 mm | - | - | - |
| 1778163127 | 17.22° C | 57% | 1009 hPa | 0 mm | - | - | - |
| 1778162649 | 17.78° C | 55% | 1009 hPa | 0 mm | - | - | - |
| 1778162286 | 17.78° C | 53% | 1009 hPa | 0 mm | - | - | - |
| 1778161211 | 18.89° C | 46% | 1009 hPa | 0 mm | - | - | - |
| 1778160847 | 18.89° C | 44% | 1009 hPa | 0 mm | - | - | - |
| 1778159767 | 17.78° C | 51% | 1009 hPa | 0 mm | - | - | - |
| 1778159416 | 18.33° C | 45% | 1009 hPa | 0 mm | - | - | - |
| 1778158820 | 18.33° C | 44% | 1009 hPa | 0 mm | - | - | - |
| 1778157485 | 19.44° C | 44% | 1009 hPa | 0 mm | - | - | - |
| 1778155811 | 19.44° C | 43% | 1009 hPa | 0 mm | - | - | - |
| 1778155222 | 20° C | 42% | 1009 hPa | 0 mm | - | - | - |
| 1778154016 | 20.56° C | 41% | 1009 hPa | 0 mm | - | - | - |
| 1778153416 | 20° C | 42% | 1009 hPa | 0 mm | - | - | - |
| 1778151967 | 20° C | 43% | 1009 hPa | 0 mm | - | - | - |
| 1778151487 | 20.56° C | 42% | 1009 hPa | 0 mm | - | - | - |
| 1778150527 | 20.56° C | 44% | 1009 hPa | 0 mm | - | - | - |
| 1778149927 | 18.89° C | 45% | 1009 hPa | 0 mm | - | - | - |
| 1778149086 | 19.44° C | 49% | 1009 hPa | 0 mm | - | - | - |
| 1778148247 | 19.44° C | 47% | 1009 hPa | 0 mm | - | - | - |
| 1778147046 | 18.33° C | 50% | 1009 hPa | 0 mm | - | - | - |
| 1778146327 | 18.89° C | 48% | 1009 hPa | 0 mm | - | - | - |
* Rain latest hour (hover to see other rain measurements)
** Current wind speed in m/s (hover to see current wind gust speed)